createdAt,value
2019-02-26T00:00:14.389Z,0.66
2019-02-26T00:03:26.412Z,0.70
2019-02-26T00:06:42.454Z,0.70
2019-02-26T00:09:57.536Z,0.69
2019-02-26T00:13:12.190Z,0.73
2019-02-26T00:16:25.808Z,0.65
2019-02-26T00:19:40.057Z,0.62
2019-02-26T00:22:55.401Z,0.66
2019-02-26T00:26:10.710Z,0.69
2019-02-26T00:29:25.428Z,0.72
2019-02-26T00:32:40.559Z,0.74
2019-02-26T00:35:54.477Z,0.75
2019-02-26T00:39:08.075Z,0.77
2019-02-26T00:42:23.842Z,0.67
2019-02-26T00:45:39.103Z,0.67
2019-02-26T00:48:52.562Z,0.66
2019-02-26T00:52:06.826Z,0.58
2019-02-26T00:55:25.462Z,0.60
2019-02-26T00:58:38.892Z,0.62
2019-02-26T01:01:53.072Z,0.44
2019-02-26T01:05:08.785Z,0.51
2019-02-26T01:08:23.803Z,0.49
2019-02-26T01:11:37.682Z,0.51
2019-02-26T01:14:51.217Z,0.35
2019-02-26T01:18:05.712Z,0.31
2019-02-26T01:21:22.169Z,0.34
2019-02-26T01:24:34.949Z,0.28
2019-02-26T01:27:51.108Z,0.16
2019-02-26T01:31:04.996Z,0.33
2019-02-26T01:34:20.383Z,0.35
2019-02-26T01:37:36.176Z,0.37
2019-02-26T01:40:52.006Z,0.29
2019-02-26T01:44:04.985Z,0.23
2019-02-26T01:47:19.600Z,0.20
2019-02-26T01:50:35.637Z,0.22
2019-02-26T01:53:51.912Z,0.25
2019-02-26T01:57:08.575Z,0.24
2019-02-26T02:00:20.778Z,0.26
2019-02-26T02:03:34.879Z,0.19
2019-02-26T02:06:48.694Z,0.24
2019-02-26T02:10:03.252Z,0.22
2019-02-26T02:13:17.059Z,0.22
2019-02-26T02:16:31.396Z,0.10
2019-02-26T02:19:46.223Z,0.07
2019-02-26T02:23:00.932Z,0.01
2019-02-26T02:26:15.714Z,-0.01
2019-02-26T02:29:29.511Z,-0.01
2019-02-26T02:32:43.063Z,0.07
2019-02-26T02:35:56.523Z,0.11
2019-02-26T02:39:12.952Z,-0.03
2019-02-26T02:42:25.902Z,-0.07
2019-02-26T02:45:39.370Z,-0.11
2019-02-26T02:48:52.833Z,-0.06
2019-02-26T02:52:07.235Z,-0.09
2019-02-26T02:55:21.688Z,0.01
2019-02-26T02:58:35.186Z,0.02
2019-02-26T03:01:51.353Z,0.06
2019-02-26T03:05:04.630Z,0.10
2019-02-26T03:08:21.986Z,-0.02
2019-02-26T03:11:38.646Z,-0.07
2019-02-26T03:14:49.548Z,-0.06
2019-02-26T03:18:04.130Z,-0.07
2019-02-26T03:21:20.198Z,-0.09
2019-02-26T03:24:35.932Z,-0.09
2019-02-26T03:27:49.892Z,-0.03
2019-02-26T03:31:03.615Z,-0.15
2019-02-26T03:34:21.773Z,-0.13
2019-02-26T03:37:34.616Z,-0.10
2019-02-26T03:40:49.338Z,-0.08
2019-02-26T03:44:05.854Z,-0.10
2019-02-26T03:47:19.293Z,-0.09
2019-02-26T03:50:32.738Z,-0.13
2019-02-26T03:53:46.223Z,-0.12
2019-02-26T03:57:00.406Z,-0.22
2019-02-26T04:00:16.747Z,-0.20
2019-02-26T04:03:32.039Z,-0.18
2019-02-26T04:06:47.104Z,-0.20
2019-02-26T04:10:01.227Z,-0.17
2019-02-26T04:13:14.695Z,-0.24
2019-02-26T04:16:29.851Z,-0.28
2019-02-26T04:19:44.475Z,-0.28
2019-02-26T04:22:58.236Z,-0.29
2019-02-26T04:26:35.176Z,-0.31
2019-02-26T04:29:59.391Z,-0.44
2019-02-26T04:33:40.736Z,-0.41
2019-02-26T04:37:32.748Z,-0.40
2019-02-26T04:41:00.193Z,-0.37
2019-02-26T04:45:05.869Z,-0.48
2019-02-26T04:48:23.633Z,-0.45
2019-02-26T04:51:39.108Z,-0.51
2019-02-26T04:54:51.930Z,-0.49
2019-02-26T04:58:05.417Z,-0.47
2019-02-26T05:01:19.279Z,-0.53
2019-02-26T05:04:33.971Z,-0.50
2019-02-26T05:07:50.055Z,-0.62
2019-02-26T05:11:03.998Z,-0.62
2019-02-26T05:14:23.009Z,-0.68
2019-02-26T05:17:33.399Z,-0.59
2019-02-26T05:20:48.395Z,-0.66
2019-02-26T05:24:03.070Z,-0.61
2019-02-26T05:27:19.743Z,-0.58
2019-02-26T05:30:32.627Z,-0.65
2019-02-26T05:33:46.835Z,-0.59
2019-02-26T05:37:02.423Z,-0.53
2019-02-26T05:40:21.438Z,-0.50
2019-02-26T05:43:34.050Z,-0.51
2019-02-26T05:46:50.063Z,-0.69
2019-02-26T05:50:06.391Z,-0.69
2019-02-26T05:53:19.256Z,-0.64
2019-02-26T05:56:34.140Z,-0.58
2019-02-26T05:59:48.199Z,-0.65
2019-02-26T06:03:03.462Z,-0.64
2019-02-26T06:06:17.396Z,-0.66
2019-02-26T06:09:33.770Z,-0.71
2019-02-26T06:12:46.997Z,-0.90
2019-02-26T06:16:01.975Z,-0.94
2019-02-26T06:19:18.930Z,-0.88
2019-02-26T06:22:34.626Z,-0.88
2019-02-26T06:25:48.262Z,-0.87
2019-02-26T06:29:01.766Z,-0.91
2019-02-26T06:32:15.339Z,-0.85
2019-02-26T06:35:28.995Z,-0.75
2019-02-26T06:38:42.430Z,-0.66
2019-02-26T06:41:56.166Z,-0.56
2019-02-26T06:45:13.242Z,-0.51
2019-02-26T06:48:29.190Z,-0.49
2019-02-26T06:51:42.990Z,-0.67
2019-02-26T06:55:00.059Z,-0.61
2019-02-26T06:58:20.779Z,-0.50
2019-02-26T07:01:35.267Z,-0.35
2019-02-26T07:04:50.284Z,-0.32
2019-02-26T07:08:04.813Z,-0.44
2019-02-26T07:11:19.563Z,-0.41
2019-02-26T07:14:34.525Z,-0.40
2019-02-26T07:17:48.050Z,-0.27
2019-02-26T07:21:01.536Z,-0.25
2019-02-26T07:24:17.347Z,-0.15
2019-02-26T07:27:31.992Z,-0.23
2019-02-26T07:30:46.912Z,-0.18
2019-02-26T07:34:02.847Z,0.00
2019-02-26T07:37:16.065Z,0.10
2019-02-26T07:40:30.519Z,0.19
2019-02-26T07:43:46.880Z,0.35
2019-02-26T07:47:01.539Z,0.38
2019-02-26T07:50:17.423Z,0.47
2019-02-26T07:53:31.787Z,0.61
2019-02-26T07:56:45.280Z,0.70
2019-02-26T07:59:59.124Z,0.88
2019-02-26T08:03:13.143Z,1.05
2019-02-26T08:06:29.197Z,1.21
2019-02-26T08:09:42.415Z,1.37
2019-02-26T08:12:56.723Z,1.51
2019-02-26T08:16:11.455Z,1.72
2019-02-26T08:19:29.478Z,1.99
2019-02-26T08:22:41.026Z,2.24
2019-02-26T08:25:55.648Z,2.49
2019-02-26T08:29:12.350Z,2.74
2019-02-26T08:32:27.919Z,3.00
2019-02-26T08:35:41.541Z,3.32
2019-02-26T08:38:57.101Z,3.71
2019-02-26T08:42:11.124Z,4.13
2019-02-26T08:45:25.759Z,4.45
2019-02-26T08:48:41.370Z,4.72
2019-02-26T08:51:55.336Z,5.04
2019-02-26T08:55:10.742Z,5.44
2019-02-26T08:58:26.361Z,5.89
2019-02-26T09:01:41.315Z,6.30
2019-02-26T09:04:55.089Z,6.53
2019-02-26T09:08:10.866Z,6.80
2019-02-26T09:11:26.149Z,7.22
2019-02-26T09:14:42.382Z,7.72
2019-02-26T09:17:55.515Z,8.18
2019-02-26T09:21:10.236Z,8.61
2019-02-26T09:24:25.107Z,9.05
2019-02-26T09:27:42.758Z,9.47
2019-02-26T09:30:56.337Z,9.62
2019-02-26T09:34:10.054Z,9.92
2019-02-26T09:37:23.564Z,10.31
2019-02-26T09:40:37.371Z,10.62
2019-02-26T09:43:50.889Z,10.79
2019-02-26T09:47:05.446Z,11.01
2019-02-26T09:50:22.542Z,11.52
2019-02-26T09:53:35.567Z,12.20
2019-02-26T09:56:49.168Z,12.78
2019-02-26T10:00:05.725Z,13.19
2019-02-26T10:03:19.518Z,13.52
2019-02-26T10:06:34.591Z,13.80
2019-02-26T10:09:49.007Z,14.14
2019-02-26T10:13:04.751Z,14.54
2019-02-26T10:16:18.194Z,14.97
2019-02-26T10:19:33.722Z,15.31
2019-02-26T10:22:47.160Z,15.64
2019-02-26T10:26:02.833Z,16.04
2019-02-26T10:29:16.310Z,16.49
2019-02-26T10:32:29.793Z,16.87
2019-02-26T10:35:45.562Z,17.32
2019-02-26T10:39:02.279Z,17.65
2019-02-26T10:42:14.966Z,17.93
2019-02-26T10:45:28.541Z,18.04
2019-02-26T10:48:43.412Z,18.21
2019-02-26T10:51:58.641Z,18.38
2019-02-26T10:55:15.127Z,18.54
2019-02-26T10:58:28.713Z,18.47
2019-02-26T11:01:43.319Z,18.83
2019-02-26T11:04:56.983Z,19.07
2019-02-26T11:08:10.756Z,19.17
2019-02-26T11:11:24.286Z,19.48
2019-02-26T11:14:39.615Z,19.87
2019-02-26T11:17:55.684Z,20.32
2019-02-26T11:21:09.616Z,20.67
2019-02-26T11:24:23.918Z,20.78
2019-02-26T11:27:40.877Z,20.45
2019-02-26T11:30:56.570Z,20.80
2019-02-26T11:34:11.246Z,21.27
2019-02-26T11:37:27.150Z,21.77
2019-02-26T11:40:41.247Z,21.97
2019-02-26T11:43:55.015Z,21.95
2019-02-26T11:47:10.983Z,22.09
2019-02-26T11:50:28.209Z,22.21
2019-02-26T11:53:40.254Z,22.24
2019-02-26T11:56:53.908Z,22.21
2019-02-26T12:00:13.945Z,22.45
2019-02-26T12:03:30.346Z,23.05
2019-02-26T12:06:43.741Z,23.53
2019-02-26T12:09:57.962Z,24.10
2019-02-26T12:13:14.681Z,24.63
2019-02-26T12:16:29.155Z,25.26
2019-02-26T12:19:42.994Z,25.88
2019-02-26T12:22:56.485Z,24.94
2019-02-26T12:26:10.286Z,24.31
2019-02-26T12:29:25.839Z,24.23
2019-02-26T12:32:39.371Z,24.71
2019-02-26T12:35:55.519Z,24.99
2019-02-26T12:39:08.443Z,24.43
2019-02-26T12:42:21.941Z,24.11
2019-02-26T12:45:38.668Z,23.90
2019-02-26T12:48:50.912Z,23.84
2019-02-26T12:52:04.505Z,23.82
2019-02-26T12:55:18.262Z,23.88
2019-02-26T12:58:31.991Z,24.09
2019-02-26T13:01:46.814Z,24.11
2019-02-26T13:05:00.975Z,24.12
2019-02-26T13:08:18.931Z,24.21
2019-02-26T13:11:30.256Z,24.11
2019-02-26T13:14:47.307Z,23.89
2019-02-26T13:18:00.046Z,24.06
2019-02-26T13:21:16.992Z,24.38
2019-02-26T13:24:29.435Z,24.29
2019-02-26T13:27:45.261Z,24.18
2019-02-26T13:31:02.294Z,23.96
2019-02-26T13:34:17.104Z,23.72
2019-02-26T13:37:32.444Z,23.27
2019-02-26T13:40:45.986Z,23.44
2019-02-26T13:43:59.603Z,23.69
2019-02-26T13:47:13.638Z,23.85
2019-02-26T13:50:27.512Z,23.79
2019-02-26T13:53:41.305Z,24.10
2019-02-26T13:56:55.421Z,24.29
2019-02-26T14:00:10.415Z,24.68
2019-02-26T14:03:24.288Z,24.96
2019-02-26T14:06:38.055Z,24.35
2019-02-26T14:09:51.706Z,24.28
2019-02-26T14:13:05.283Z,24.41
2019-02-26T14:16:18.997Z,24.33
2019-02-26T14:19:32.535Z,24.70
2019-02-26T14:22:46.533Z,24.46
2019-02-26T14:26:00.038Z,24.10
2019-02-26T14:29:13.705Z,23.76
2019-02-26T14:32:27.601Z,23.49
2019-02-26T14:35:41.193Z,23.56
2019-02-26T14:38:55.154Z,23.79
2019-02-26T14:42:09.094Z,23.67
2019-02-26T14:45:23.274Z,23.27
2019-02-26T14:48:37.040Z,22.77
2019-02-26T14:51:51.510Z,22.56
2019-02-26T14:55:05.637Z,22.61
2019-02-26T14:58:19.495Z,22.39
2019-02-26T15:01:33.060Z,22.05
2019-02-26T15:04:47.379Z,21.69
2019-02-26T15:08:01.436Z,21.04
2019-02-26T15:11:15.149Z,20.41
2019-02-26T15:14:30.059Z,19.74
2019-02-26T15:17:44.166Z,19.22
2019-02-26T15:20:57.943Z,18.94
2019-02-26T15:24:12.087Z,18.67
2019-02-26T15:27:25.740Z,18.49
2019-02-26T15:30:40.237Z,18.40
2019-02-26T15:33:58.131Z,18.28
2019-02-26T15:37:11.602Z,18.20
2019-02-26T15:40:25.890Z,18.06
2019-02-26T15:43:39.904Z,17.95
2019-02-26T15:46:53.475Z,17.84
2019-02-26T15:50:09.539Z,17.91
2019-02-26T15:53:23.805Z,17.78
2019-02-26T15:56:39.526Z,17.81
2019-02-26T15:59:53.017Z,17.82
2019-02-26T16:03:06.924Z,17.81
2019-02-26T16:06:20.792Z,17.70
2019-02-26T16:09:35.746Z,17.39
2019-02-26T16:12:50.777Z,17.06
2019-02-26T16:16:04.438Z,16.89
2019-02-26T16:19:18.143Z,16.55
2019-02-26T16:22:32.385Z,16.17
2019-02-26T16:25:46.972Z,15.79
2019-02-26T16:29:01.074Z,15.46
2019-02-26T16:32:16.082Z,15.19
2019-02-26T16:35:30.108Z,15.02
2019-02-26T16:38:43.938Z,14.75
2019-02-26T16:41:58.057Z,14.38
2019-02-26T16:45:35.089Z,14.17
2019-02-26T16:48:48.960Z,13.95
2019-02-26T16:52:05.888Z,13.48
2019-02-26T16:55:20.007Z,13.16
2019-02-26T16:58:37.278Z,12.91
2019-02-26T17:01:52.625Z,12.76
2019-02-26T17:05:07.490Z,12.57
2019-02-26T17:08:21.481Z,12.37
2019-02-26T17:11:55.153Z,12.17
2019-02-26T17:15:15.154Z,11.98
2019-02-26T17:18:28.933Z,11.69
2019-02-26T17:21:44.450Z,11.51
2019-02-26T17:24:57.933Z,11.21
2019-02-26T17:28:12.365Z,10.99
2019-02-26T17:31:28.722Z,10.72
2019-02-26T17:34:42.005Z,10.51
2019-02-26T17:37:55.700Z,10.37
2019-02-26T17:41:09.902Z,10.28
2019-02-26T17:44:24.710Z,10.14
2019-02-26T17:47:38.211Z,9.79
2019-02-26T17:50:51.801Z,9.46
2019-02-26T17:54:05.488Z,9.17
2019-02-26T17:57:19.660Z,8.99
2019-02-26T18:00:36.634Z,8.92
2019-02-26T18:03:50.192Z,8.82
2019-02-26T18:07:03.979Z,8.54
2019-02-26T18:10:18.682Z,8.29
2019-02-26T18:13:32.234Z,8.16
2019-02-26T18:16:45.706Z,7.92
2019-02-26T18:19:59.183Z,7.70
2019-02-26T18:23:13.262Z,7.63
2019-02-26T18:26:26.753Z,7.53
2019-02-26T18:29:40.226Z,7.39
2019-02-26T18:32:57.408Z,7.14
2019-02-26T18:36:12.508Z,7.03
2019-02-26T18:39:25.982Z,6.89
2019-02-26T18:42:41.374Z,6.91
2019-02-26T18:45:54.946Z,6.67
2019-02-26T18:49:08.739Z,6.58
2019-02-26T18:52:22.739Z,6.55
2019-02-26T18:55:36.200Z,6.36
2019-02-26T18:58:50.481Z,6.25
2019-02-26T19:02:05.052Z,6.18
2019-02-26T19:05:21.033Z,6.06
2019-02-26T19:08:34.721Z,5.84
2019-02-26T19:11:48.505Z,5.86
2019-02-26T19:15:02.305Z,5.90
2019-02-26T19:18:15.766Z,5.94
2019-02-26T19:21:29.226Z,5.94
2019-02-26T19:24:42.806Z,5.82
2019-02-26T19:27:56.378Z,5.59
2019-02-26T19:31:10.344Z,5.54
2019-02-26T19:34:28.053Z,5.50
2019-02-26T19:37:39.954Z,5.43
2019-02-26T19:40:53.986Z,5.21
2019-02-26T19:44:07.792Z,5.03
2019-02-26T19:47:22.745Z,4.82
2019-02-26T19:50:36.833Z,4.78
2019-02-26T19:53:50.856Z,4.80
2019-02-26T19:57:04.317Z,4.64
2019-02-26T20:00:19.890Z,4.52
2019-02-26T20:03:39.931Z,4.62
2019-02-26T20:06:48.905Z,4.55
2019-02-26T20:10:03.081Z,4.37
2019-02-26T20:13:16.566Z,4.25
2019-02-26T20:16:30.074Z,4.25
2019-02-26T20:19:43.541Z,4.20
2019-02-26T20:22:57.276Z,4.16
2019-02-26T20:26:10.850Z,4.23
2019-02-26T20:29:24.704Z,4.13
2019-02-26T20:32:38.567Z,4.06
2019-02-26T20:35:52.362Z,4.06
2019-02-26T20:39:07.939Z,3.93
2019-02-26T20:42:21.813Z,3.88
2019-02-26T20:45:35.794Z,3.78
2019-02-26T20:48:49.566Z,3.85
2019-02-26T20:52:03.392Z,3.70
2019-02-26T20:55:19.251Z,3.64
2019-02-26T20:58:33.430Z,3.59
2019-02-26T21:01:47.177Z,3.59
2019-02-26T21:05:00.687Z,3.58
2019-02-26T21:08:14.257Z,3.59
2019-02-26T21:11:28.008Z,3.48
2019-02-26T21:14:41.958Z,3.36
2019-02-26T21:17:57.798Z,3.32
2019-02-26T21:21:11.711Z,3.29
2019-02-26T21:24:26.319Z,3.28
2019-02-26T21:27:39.979Z,3.27
2019-02-26T21:30:53.456Z,3.25
2019-02-26T21:34:06.916Z,3.22
2019-02-26T21:37:20.653Z,3.10
2019-02-26T21:40:34.151Z,2.88
2019-02-26T21:43:47.627Z,2.79
2019-02-26T21:47:01.097Z,2.78
2019-02-26T21:50:14.774Z,2.89
2019-02-26T21:53:28.250Z,2.84
2019-02-26T21:56:41.976Z,2.79
2019-02-26T21:59:55.424Z,2.80
2019-02-26T22:03:08.886Z,2.77
2019-02-26T22:06:22.616Z,2.81
2019-02-26T22:09:36.071Z,2.72
2019-02-26T22:12:49.533Z,2.59
2019-02-26T22:16:03.339Z,2.57
2019-02-26T22:19:17.395Z,2.55
2019-02-26T22:22:30.896Z,2.45
2019-02-26T22:25:44.635Z,2.53
2019-02-26T22:28:58.120Z,2.58
2019-02-26T22:32:11.594Z,2.50
2019-02-26T22:35:25.900Z,2.50
2019-02-26T22:38:39.963Z,2.32
2019-02-26T22:41:53.446Z,2.35
2019-02-26T22:45:07.743Z,2.41
2019-02-26T22:48:21.582Z,2.43
2019-02-26T22:51:35.283Z,2.31
2019-02-26T22:54:49.063Z,2.32
2019-02-26T22:58:03.329Z,2.09
2019-02-26T23:01:42.853Z,1.97
2019-02-26T23:04:56.423Z,2.02
2019-02-26T23:08:11.882Z,1.99
2019-02-26T23:11:25.860Z,1.94
2019-02-26T23:14:39.732Z,1.85
2019-02-26T23:17:53.404Z,1.94
2019-02-26T23:21:07.960Z,1.99
2019-02-26T23:24:21.637Z,2.02
2019-02-26T23:27:35.200Z,2.01
2019-02-26T23:30:48.855Z,1.97
2019-02-26T23:34:02.439Z,1.83
2019-02-26T23:37:15.996Z,1.79
2019-02-26T23:40:29.568Z,1.80
2019-02-26T23:43:45.436Z,1.81
2019-02-26T23:47:01.654Z,1.73
2019-02-26T23:50:14.913Z,1.76
2019-02-26T23:53:28.368Z,1.74
2019-02-26T23:56:42.067Z,1.72
2019-02-26T23:59:55.536Z,1.70
